Time;durP1;ratioP1;P1;durP2;ratioP2;P2;SDS_P1;SDS_P2;PMS_P1;PMS_P2;Temp;Humidity;BMP_temperature;BMP_pressure;BME280_temperature;BME280_humidity;BME280_pressure;Samples;Min_cycle;Max_cycle;Signal;HPM_P1;HPM_P2
2022/03/07 00:01:25;;;;;;;15.20;6.43;;;2.00;99.90;;;;;;5050068;28;20045;-81
2022/03/07 00:03:51;;;;;;;13.63;6.50;;;2.00;99.90;;;;;;5050211;28;20041;-81
2022/03/07 00:06:17;;;;;;;12.68;6.05;;;2.00;99.90;;;;;;5050411;28;20041;-81
2022/03/07 00:08:42;;;;;;;16.58;9.65;;;2.00;99.90;;;;;;5049488;28;20517;-81
2022/03/07 00:11:08;;;;;;;16.13;9.57;;;2.00;99.90;;;;;;5049774;28;20068;-81
2022/03/07 00:13:35;;;;;;;12.73;7.40;;;2.00;99.90;;;;;;5050031;28;20041;-80
2022/03/07 00:16:02;;;;;;;12.98;6.80;;;2.00;99.90;;;;;;5050083;28;20702;-81
2022/03/07 00:18:27;;;;;;;13.55;7.53;;;2.00;99.90;;;;;;5049918;28;20037;-81
2022/03/07 00:20:55;;;;;;;13.65;7.40;;;2.00;99.90;;;;;;5049774;28;20094;-81
2022/03/07 00:23:20;;;;;;;13.60;8.00;;;2.00;99.90;;;;;;5049767;28;20560;-81
2022/03/07 00:25:46;;;;;;;14.15;7.60;;;2.00;99.90;;;;;;5050093;28;20041;-81
2022/03/07 00:28:14;;;;;;;12.48;5.95;;;1.90;99.90;;;;;;5033378;28;20409;-80
2022/03/07 00:30:40;;;;;;;10.70;5.72;;;1.90;99.90;;;;;;5049876;28;20429;-80
2022/03/07 00:33:05;;;;;;;11.82;5.93;;;1.80;99.90;;;;;;5049777;28;20567;-81
2022/03/07 00:35:31;;;;;;;12.13;6.05;;;1.70;99.90;;;;;;5050053;28;20033;-81
2022/03/07 00:37:57;;;;;;;12.57;6.28;;;1.70;99.90;;;;;;5049542;28;20560;-80
2022/03/07 00:40:22;;;;;;;10.45;5.57;;;1.60;99.90;;;;;;5049760;28;20048;-80
2022/03/07 00:42:49;;;;;;;14.05;6.93;;;1.60;99.90;;;;;;5049635;28;20521;-80
2022/03/07 00:45:15;;;;;;;11.13;5.47;;;1.60;99.90;;;;;;5049782;28;20131;-81
2022/03/07 00:47:40;;;;;;;11.38;6.43;;;1.50;99.90;;;;;;5050776;28;20448;-81
2022/03/07 00:50:07;;;;;;;13.90;6.18;;;1.50;99.90;;;;;;5053437;28;20060;-81
2022/03/07 00:52:32;;;;;;;19.05;10.20;;;1.40;99.90;;;;;;5053663;28;20135;-81
2022/03/07 00:54:58;;;;;;;14.77;8.23;;;1.40;99.90;;;;;;5053560;28;20469;-81
2022/03/07 00:57:24;;;;;;;10.93;6.18;;;1.40;99.90;;;;;;5053502;28;20041;-81
2022/03/07 00:59:49;;;;;;;10.70;5.60;;;1.30;99.90;;;;;;5036555;28;20110;-81
2022/03/07 01:02:15;;;;;;;11.07;6.20;;;1.30;99.90;;;;;;5053453;28;20072;-80
2022/03/07 01:04:41;;;;;;;13.00;6.32;;;1.30;99.90;;;;;;5053349;28;20391;-81
2022/03/07 01:07:08;;;;;;;11.52;6.03;;;1.30;99.90;;;;;;5053221;28;20052;-81
2022/03/07 01:09:35;;;;;;;10.55;5.47;;;1.20;99.90;;;;;;5052727;28;20091;-81
2022/03/07 01:12:00;;;;;;;11.25;5.97;;;1.20;99.90;;;;;;5053165;28;20120;-81
2022/03/07 01:14:26;;;;;;;10.70;5.68;;;1.20;99.90;;;;;;5053229;28;20117;-81
2022/03/07 01:16:51;;;;;;;9.77;5.25;;;1.10;99.90;;;;;;5053427;28;20490;-81
2022/03/07 01:19:17;;;;;;;9.63;4.60;;;1.10;99.90;;;;;;5053016;28;20043;-81
2022/03/07 01:21:43;;;;;;;11.65;5.82;;;1.00;99.90;;;;;;5052844;28;20409;-81
2022/03/07 01:24:09;;;;;;;13.35;5.97;;;1.00;99.90;;;;;;5053402;28;20079;-81
2022/03/07 01:26:36;;;;;;;10.95;6.28;;;1.00;99.90;;;;;;5053237;28;20072;-81
2022/03/07 01:29:01;;;;;;;13.32;6.00;;;0.90;99.90;;;;;;5052725;28;20506;-81
2022/03/07 01:31:27;;;;;;;9.15;5.15;;;0.90;99.90;;;;;;5053046;28;20033;-81
2022/03/07 01:33:52;;;;;;;11.35;5.68;;;0.90;99.90;;;;;;5052634;28;20497;-81
2022/03/07 01:36:18;;;;;;;11.05;5.68;;;0.80;99.90;;;;;;5052723;28;20131;-81
2022/03/07 01:38:44;;;;;;;11.88;5.78;;;0.80;99.90;;;;;;5053874;28;20045;-81
2022/03/07 01:41:09;;;;;;;11.10;5.10;;;0.70;99.90;;;;;;5052608;28;20425;-81
2022/03/07 01:43:35;;;;;;;13.27;6.22;;;0.70;99.90;;;;;;5052582;28;20114;-81
2022/03/07 01:46:00;;;;;;;13.88;6.63;;;0.70;99.90;;;;;;5035978;28;20040;-81
2022/03/07 01:48:26;;;;;;;12.43;6.32;;;0.70;99.90;;;;;;5036268;28;20040;-81
2022/03/07 01:50:53;;;;;;;12.43;6.28;;;0.70;99.90;;;;;;5035745;28;20434;-81
2022/03/07 01:53:21;;;;;;;12.95;5.95;;;0.60;99.90;;;;;;5052488;28;20399;-81
2022/03/07 01:55:46;;;;;;;12.82;5.70;;;0.60;99.90;;;;;;5035966;28;20099;-81
2022/03/07 01:58:12;;;;;;;9.00;5.03;;;0.60;99.90;;;;;;5035766;28;20524;-81
2022/03/07 02:00:39;;;;;;;9.25;4.63;;;0.60;99.90;;;;;;5050923;28;20041;-81
2022/03/07 02:03:05;;;;;;;10.10;4.88;;;0.60;99.90;;;;;;5052400;28;20053;-81
2022/03/07 02:05:31;;;;;;;8.20;4.65;;;0.50;99.90;;;;;;5035569;28;20072;-81
2022/03/07 02:07:57;;;;;;;9.88;4.93;;;0.50;99.90;;;;;;5052112;28;20079;-81
2022/03/07 02:10:27;;;;;;;8.63;4.57;;;0.50;99.90;;;;;;5052082;28;20041;-80
2022/03/07 02:12:53;;;;;;;9.30;5.78;;;0.40;99.90;;;;;;5052259;28;20398;-81
2022/03/07 02:15:19;;;;;;;9.15;4.65;;;0.40;99.90;;;;;;5052213;28;20029;-80
2022/03/07 02:17:47;;;;;;;10.43;4.80;;;0.30;99.90;;;;;;5052060;28;20037;-80
2022/03/07 02:20:13;;;;;;;8.82;4.47;;;0.30;99.90;;;;;;5032226;28;20064;-79
2022/03/07 02:22:40;;;;;;;9.68;4.78;;;0.30;99.90;;;;;;5051764;28;20037;-80
2022/03/07 02:25:06;;;;;;;9.98;4.97;;;0.30;99.90;;;;;;5055968;28;20040;-80
2022/03/07 02:27:32;;;;;;;10.52;6.15;;;0.20;99.90;;;;;;5052816;28;20091;-80
2022/03/07 02:29:59;;;;;;;9.95;5.13;;;0.30;99.90;;;;;;5052114;28;20041;-80
2022/03/07 02:32:26;;;;;;;9.82;5.25;;;0.30;99.90;;;;;;5051656;28;20045;-80
2022/03/07 02:34:51;;;;;;;11.35;5.00;;;0.30;99.90;;;;;;5051856;28;20043;-81
2022/03/07 02:37:17;;;;;;;10.35;5.30;;;0.20;99.90;;;;;;5051884;28;20178;-81
2022/03/07 02:39:43;;;;;;;11.32;5.22;;;0.20;99.90;;;;;;5034843;28;20073;-80
2022/03/07 02:42:09;;;;;;;12.65;6.25;;;0.20;99.90;;;;;;5034854;28;20033;-81
2022/03/07 02:44:34;;;;;;;10.90;5.93;;;0.20;99.90;;;;;;5035220;28;20044;-81
2022/03/07 02:47:00;;;;;;;12.68;5.90;;;0.20;99.90;;;;;;5051219;28;20048;-80
2022/03/07 02:49:25;;;;;;;14.52;6.60;;;0.20;99.90;;;;;;5051132;28;20037;-80
2022/03/07 02:51:51;;;;;;;13.63;6.28;;;0.20;99.90;;;;;;5034901;28;20040;-81
2022/03/07 02:54:17;;;;;;;12.00;5.93;;;0.20;99.90;;;;;;5051314;28;20398;-81
2022/03/07 02:56:44;;;;;;;14.95;6.80;;;0.20;99.90;;;;;;5051265;28;20033;-81
2022/03/07 02:59:10;;;;;;;12.65;6.40;;;0.20;99.90;;;;;;5051163;28;20041;-80
2022/03/07 03:01:36;;;;;;;13.88;6.78;;;0.20;99.90;;;;;;5051214;28;20576;-81
2022/03/07 03:04:02;;;;;;;12.02;6.50;;;0.20;99.90;;;;;;5045032;28;20497;-81
2022/03/07 03:06:29;;;;;;;11.20;5.82;;;0.20;99.90;;;;;;5050997;28;20037;-80
2022/03/07 03:08:55;;;;;;;13.55;5.80;;;0.10;99.90;;;;;;5050259;28;20475;-80
2022/03/07 03:11:20;;;;;;;11.52;6.00;;;0.10;99.90;;;;;;5034112;28;20037;-81
2022/03/07 03:13:46;;;;;;;12.02;6.32;;;0.10;99.90;;;;;;5050767;28;20406;-81
2022/03/07 03:16:12;;;;;;;12.65;5.68;;;0.00;99.90;;;;;;5050903;28;20073;-81
2022/03/07 03:18:37;;;;;;;11.80;5.55;;;0.00;99.90;;;;;;5050880;28;20045;-81
2022/03/07 03:21:03;;;;;;;11.90;6.28;;;0.00;99.90;;;;;;5050468;28;20076;-80
2022/03/07 03:23:29;;;;;;;10.80;5.72;;;0.10;99.90;;;;;;5050677;28;20397;-81
2022/03/07 03:25:55;;;;;;;12.18;6.38;;;0.00;99.90;;;;;;5034069;28;20037;-80
2022/03/07 03:28:23;;;;;;;12.43;6.53;;;0.00;99.90;;;;;;5050552;28;20051;-81
2022/03/07 03:30:49;;;;;;;11.57;5.68;;;0.00;99.90;;;;;;5050095;28;20044;-80
2022/03/07 03:33:15;;;;;;;14.35;5.82;;;0.00;99.90;;;;;;5050521;28;20464;-81
2022/03/07 03:35:41;;;;;;;12.45;6.47;;;0.10;99.90;;;;;;5050483;28;20041;-81
2022/03/07 03:38:10;;;;;;;11.20;6.22;;;0.00;99.90;;;;;;5050468;28;20044;-81
2022/03/07 03:40:37;;;;;;;11.38;5.57;;;0.00;99.90;;;;;;5049993;28;20462;-80
2022/03/07 03:43:03;;;;;;;11.38;5.55;;;0.00;99.90;;;;;;5050311;28;20075;-81
2022/03/07 03:45:29;;;;;;;12.43;6.68;;;0.00;99.90;;;;;;5050194;28;20084;-81
2022/03/07 03:47:54;;;;;;;12.77;6.55;;;0.00;99.90;;;;;;5033682;28;20041;-81
2022/03/07 03:50:20;;;;;;;11.07;5.82;;;0.00;99.90;;;;;;5050061;28;20036;-80
2022/03/07 03:52:45;;;;;;;10.95;5.82;;;0.00;99.90;;;;;;5050222;28;20126;-81
2022/03/07 03:55:12;;;;;;;12.35;6.63;;;0.00;99.90;;;;;;5050572;28;20044;-81
2022/03/07 03:57:39;;;;;;;13.25;6.70;;;0.00;99.90;;;;;;5050498;28;20037;-81
2022/03/07 04:00:07;;;;;;;11.27;6.30;;;0.00;99.90;;;;;;5050017;28;20041;-80
2022/03/07 04:02:33;;;;;;;10.80;6.43;;;0.10;99.90;;;;;;5049887;28;20044;-81
2022/03/07 04:04:59;;;;;;;12.35;6.45;;;0.10;99.90;;;;;;5050129;28;20112;-81
2022/03/07 04:07:25;;;;;;;12.57;6.60;;;0.10;99.90;;;;;;5033742;28;20494;-81
2022/03/07 04:09:51;;;;;;;14.90;6.85;;;0.10;99.90;;;;;;5049515;28;20041;-81
2022/03/07 04:12:16;;;;;;;12.13;6.30;;;0.00;99.90;;;;;;5033545;28;20036;-81
2022/03/07 04:14:42;;;;;;;11.13;5.65;;;0.00;99.90;;;;;;5051238;28;20056;-81
2022/03/07 04:17:07;;;;;;;12.27;6.47;;;0.10;99.90;;;;;;5033377;28;20483;-81
2022/03/07 04:19:33;;;;;;;11.43;5.43;;;0.00;99.90;;;;;;5029759;28;20098;-80
2022/03/07 04:21:59;;;;;;;10.55;5.38;;;0.00;99.90;;;;;;5029931;28;20037;-81
2022/03/07 04:24:25;;;;;;;12.52;5.95;;;0.00;99.90;;;;;;5034119;28;20064;-81
2022/03/07 04:26:50;;;;;;;11.38;5.80;;;0.00;99.90;;;;;;5034014;28;20131;-81
2022/03/07 04:29:16;;;;;;;12.63;5.38;;;0.00;99.90;;;;;;5033770;28;20099;-80
2022/03/07 04:31:43;;;;;;;11.65;5.47;;;0.00;99.90;;;;;;5033975;28;20042;-81
2022/03/07 04:34:09;;;;;;;9.13;5.07;;;0.00;99.90;;;;;;5044863;28;20052;-81
2022/03/07 04:36:39;;;;;;;12.63;5.20;;;0.00;99.90;;;;;;5054254;28;20037;-81
2022/03/07 04:39:06;;;;;;;10.77;5.97;;;0.00;99.90;;;;;;5053574;28;20064;-80
2022/03/07 04:41:33;;;;;;;10.35;5.10;;;-0.10;99.90;;;;;;5053909;28;20478;-81
2022/03/07 04:43:59;;;;;;;9.70;4.88;;;-0.10;99.90;;;;;;5053637;28;20053;-81
2022/03/07 04:46:24;;;;;;;10.43;5.43;;;-0.10;99.90;;;;;;5053807;28;20060;-81
2022/03/07 04:48:50;;;;;;;10.98;5.38;;;-0.10;99.90;;;;;;5053660;28;20059;-80
2022/03/07 04:51:16;;;;;;;11.30;5.78;;;-0.10;99.90;;;;;;5053620;28;20045;-81
2022/03/07 04:53:42;;;;;;;12.02;5.90;;;-0.10;99.90;;;;;;5053362;28;20490;-80
2022/03/07 04:56:09;;;;;;;11.07;6.25;;;-0.10;99.90;;;;;;5036733;28;20116;-81
2022/03/07 04:58:35;;;;;;;11.27;6.30;;;0.00;99.90;;;;;;5037081;28;20489;-81
2022/03/07 05:01:01;;;;;;;10.23;5.93;;;0.00;99.90;;;;;;5053053;28;20540;-81
2022/03/07 05:03:27;;;;;;;13.82;6.35;;;0.00;99.90;;;;;;5036824;28;20425;-81
2022/03/07 05:05:53;;;;;;;10.88;6.03;;;0.10;99.90;;;;;;5053572;28;20040;-81
2022/03/07 05:08:18;;;;;;;11.00;5.45;;;0.10;99.90;;;;;;5053197;28;20563;-81
2022/03/07 05:10:44;;;;;;;11.32;5.68;;;0.10;99.90;;;;;;5052957;28;20033;-80
2022/03/07 05:13:10;;;;;;;11.85;6.00;;;0.10;99.90;;;;;;5053398;28;20390;-81
2022/03/07 05:15:36;;;;;;;11.98;6.00;;;0.10;99.90;;;;;;5053142;28;20044;-81
2022/03/07 05:18:02;;;;;;;10.00;5.35;;;0.10;99.90;;;;;;5053127;28;20076;-81
2022/03/07 05:20:28;;;;;;;12.00;5.75;;;0.10;99.90;;;;;;5053132;28;20446;-81
2022/03/07 05:22:53;;;;;;;12.77;6.03;;;0.10;99.90;;;;;;5036683;28;20075;-81
2022/03/07 05:25:20;;;;;;;12.38;6.05;;;0.10;99.90;;;;;;5052909;28;20579;-81
2022/03/07 05:27:46;;;;;;;14.95;6.38;;;0.10;99.90;;;;;;5052922;28;20076;-80
2022/03/07 05:30:15;;;;;;;11.20;6.07;;;0.10;99.90;;;;;;5052581;28;20459;-81
2022/03/07 05:32:46;;;;;;;11.27;6.07;;;0.10;99.90;;;;;;5052820;28;20072;-80
2022/03/07 05:35:13;;;;;;;12.50;6.40;;;0.00;99.90;;;;;;5052814;28;20029;-81
2022/03/07 05:37:39;;;;;;;10.88;6.07;;;0.00;99.90;;;;;;5053042;28;20399;-80
2022/03/07 05:40:06;;;;;;;11.02;6.20;;;0.00;99.90;;;;;;5052093;28;20506;-80
2022/03/07 05:42:33;;;;;;;11.55;5.97;;;0.00;99.90;;;;;;5052431;28;20044;-80
2022/03/07 05:44:59;;;;;;;10.77;6.18;;;-0.10;99.90;;;;;;5052677;28;20041;-81
2022/03/07 05:47:24;;;;;;;11.45;6.22;;;-0.10;99.90;;;;;;5052932;28;20041;-81
2022/03/07 05:49:50;;;;;;;14.90;7.28;;;-0.10;99.90;;;;;;5052276;28;20040;-81
2022/03/07 05:52:16;;;;;;;13.82;6.78;;;-0.10;99.90;;;;;;5052189;28;20124;-81
2022/03/07 05:54:41;;;;;;;12.77;7.10;;;0.00;99.90;;;;;;5052472;28;20053;-80
2022/03/07 05:57:07;;;;;;;14.23;6.47;;;0.00;99.90;;;;;;5052391;28;20071;-81
2022/03/07 05:59:32;;;;;;;11.60;5.57;;;-0.10;99.90;;;;;;5053425;28;20048;-80
2022/03/07 06:01:58;;;;;;;13.65;6.47;;;0.00;99.90;;;;;;5053463;28;20068;-81
2022/03/07 06:04:24;;;;;;;12.55;6.90;;;0.00;99.90;;;;;;5035390;28;20421;-81
2022/03/07 06:06:50;;;;;;;13.27;7.13;;;0.00;99.90;;;;;;5051984;28;20076;-80
2022/03/07 06:09:15;;;;;;;11.23;6.70;;;0.00;99.90;;;;;;5051253;28;20045;-80
2022/03/07 06:11:41;;;;;;;14.13;8.02;;;0.00;99.90;;;;;;5052090;28;20130;-80
2022/03/07 06:14:08;;;;;;;14.05;7.25;;;0.10;99.90;;;;;;5052070;28;20041;-80
2022/03/07 06:16:33;;;;;;;13.80;7.03;;;0.10;99.90;;;;;;5052106;28;20045;-80
2022/03/07 06:18:59;;;;;;;13.30;7.43;;;0.10;99.90;;;;;;5052303;28;20043;-80
2022/03/07 06:21:25;;;;;;;14.75;7.28;;;0.20;99.90;;;;;;5034775;28;20517;-80
2022/03/07 06:23:50;;;;;;;12.32;6.75;;;0.20;99.90;;;;;;5051741;28;20671;-80
2022/03/07 06:26:16;;;;;;;13.93;7.13;;;0.20;99.90;;;;;;5051744;28;20569;-80
2022/03/07 06:28:41;;;;;;;14.95;7.13;;;0.20;99.90;;;;;;5051383;28;20045;-80
2022/03/07 06:31:07;;;;;;;13.63;6.80;;;0.30;99.90;;;;;;5034390;28;20032;-80
2022/03/07 06:33:32;;;;;;;12.23;6.45;;;0.30;99.90;;;;;;5050537;28;20523;-80
2022/03/07 06:35:58;;;;;;;11.82;6.80;;;0.30;99.90;;;;;;5034790;28;20511;-80
2022/03/07 06:38:24;;;;;;;13.27;7.00;;;0.30;99.90;;;;;;5051665;28;20095;-80
2022/03/07 06:40:49;;;;;;;13.50;6.78;;;0.30;99.90;;;;;;5051684;28;20053;-80
2022/03/07 06:43:15;;;;;;;11.65;6.68;;;0.30;99.90;;;;;;5051495;28;20040;-80
2022/03/07 06:45:41;;;;;;;11.98;6.45;;;0.30;99.90;;;;;;5050796;28;20071;-80
2022/03/07 06:48:06;;;;;;;12.48;7.22;;;0.30;99.90;;;;;;5051251;28;20041;-80
2022/03/07 06:50:32;;;;;;;14.48;7.30;;;0.30;99.90;;;;;;5051157;28;20041;-79
2022/03/07 06:52:59;;;;;;;12.25;6.93;;;0.30;99.90;;;;;;5051199;28;20094;-80
2022/03/07 06:55:25;;;;;;;10.45;6.28;;;0.30;99.90;;;;;;5034977;28;20072;-80
2022/03/07 06:57:51;;;;;;;13.15;6.93;;;0.30;99.90;;;;;;5035084;28;20052;-80
2022/03/07 07:00:17;;;;;;;11.57;6.13;;;0.30;99.90;;;;;;5034298;28;20048;-80
2022/03/07 07:02:45;;;;;;;12.38;6.35;;;0.30;99.90;;;;;;5050992;28;20048;-80
2022/03/07 07:05:11;;;;;;;13.02;6.82;;;0.30;99.90;;;;;;5050736;28;20498;-80
2022/03/07 07:07:37;;;;;;;12.15;6.63;;;0.30;99.90;;;;;;5050670;28;20134;-80
2022/03/07 07:10:04;;;;;;;12.23;6.45;;;0.40;99.90;;;;;;5050794;28;20250;-79
2022/03/07 07:12:30;;;;;;;13.38;6.93;;;0.40;99.90;;;;;;5050744;28;20082;-80
2022/03/07 07:14:56;;;;;;;11.43;7.00;;;0.40;99.90;;;;;;5051033;28;20116;-80
2022/03/07 07:17:21;;;;;;;13.30;6.55;;;0.40;99.90;;;;;;5032815;28;20055;-79
2022/03/07 07:19:47;;;;;;;11.70;6.35;;;0.50;99.90;;;;;;5050012;28;20033;-80
2022/03/07 07:22:13;;;;;;;11.90;6.55;;;0.50;99.90;;;;;;5049924;28;20542;-79
2022/03/07 07:24:38;;;;;;;13.43;7.28;;;0.50;99.90;;;;;;5050172;28;20442;-80
2022/03/07 07:27:04;;;;;;;11.15;6.47;;;0.60;99.90;;;;;;5033529;28;20456;-80
2022/03/07 07:29:30;;;;;;;16.13;7.18;;;0.70;99.90;;;;;;5049491;28;20128;-80
2022/03/07 07:31:56;;;;;;;12.68;7.05;;;0.70;99.90;;;;;;5048256;28;20064;-80
2022/03/07 07:34:22;;;;;;;12.45;7.28;;;0.80;99.90;;;;;;5063707;28;20028;-80
2022/03/07 07:36:48;;;;;;;12.52;7.10;;;0.80;99.90;;;;;;5053495;28;20045;-79
2022/03/07 07:39:15;;;;;;;13.75;7.53;;;0.90;99.90;;;;;;5050096;28;20091;-79
2022/03/07 07:41:40;;;;;;;12.95;7.20;;;0.90;99.90;;;;;;5050505;28;20037;-79
2022/03/07 07:44:06;;;;;;;12.40;7.70;;;1.00;99.90;;;;;;5033680;28;20051;-79
2022/03/07 07:46:31;;;;;;;13.98;8.38;;;1.10;99.90;;;;;;5050374;28;20047;-80
2022/03/07 07:48:57;;;;;;;12.55;7.07;;;1.20;99.90;;;;;;5049865;28;20124;-80
2022/03/07 07:51:23;;;;;;;12.77;7.22;;;1.20;99.90;;;;;;5049375;28;20516;-80
2022/03/07 07:53:49;;;;;;;13.38;7.47;;;1.30;99.90;;;;;;5049851;28;20037;-80
2022/03/07 07:56:15;;;;;;;14.98;8.68;;;1.30;99.90;;;;;;5049809;28;20037;-80
2022/03/07 07:58:40;;;;;;;14.98;8.18;;;1.40;99.90;;;;;;5049558;28;20037;-80
2022/03/07 08:01:06;;;;;;;15.27;8.48;;;1.50;99.90;;;;;;5049509;28;20102;-80
2022/03/07 08:03:32;;;;;;;17.23;9.55;;;1.50;99.90;;;;;;5033072;28;20040;-80
2022/03/07 08:05:58;;;;;;;14.90;8.80;;;1.60;99.90;;;;;;5049850;28;20061;-80
2022/03/07 08:08:23;;;;;;;15.95;8.75;;;1.70;99.90;;;;;;5049664;28;20045;-80
2022/03/07 08:10:49;;;;;;;14.05;8.55;;;1.80;99.90;;;;;;5049808;28;20052;-81
2022/03/07 08:13:15;;;;;;;16.67;9.20;;;1.90;99.90;;;;;;5049787;28;20036;-80
2022/03/07 08:15:41;;;;;;;17.38;10.07;;;2.00;99.90;;;;;;5049743;28;20094;-81
2022/03/07 08:18:07;;;;;;;15.98;9.48;;;2.10;99.90;;;;;;5049516;28;20441;-81
2022/03/07 08:20:33;;;;;;;17.80;10.68;;;2.30;99.90;;;;;;5049162;28;20049;-81
2022/03/07 08:22:59;;;;;;;13.43;9.32;;;2.40;99.90;;;;;;5049231;28;20049;-81
2022/03/07 08:25:25;;;;;;;16.92;10.52;;;2.50;99.90;;;;;;5049512;28;20032;-81
2022/03/07 08:27:52;;;;;;;15.90;10.10;;;2.60;99.90;;;;;;5049455;28;20044;-81
2022/03/07 08:30:19;;;;;;;16.27;9.55;;;2.70;99.90;;;;;;5049373;28;20684;-81
2022/03/07 08:32:45;;;;;;;16.83;9.93;;;2.80;99.90;;;;;;5050634;28;20076;-81
2022/03/07 08:35:12;;;;;;;16.55;10.20;;;3.00;99.90;;;;;;5049733;28;20134;-81
2022/03/07 08:37:38;;;;;;;15.50;10.60;;;3.10;99.90;;;;;;5049321;28;20095;-81
2022/03/07 08:40:05;;;;;;;14.18;9.25;;;3.20;99.90;;;;;;5049198;28;20044;-81
2022/03/07 08:42:31;;;;;;;15.07;9.57;;;3.40;99.90;;;;;;5049816;28;20052;-81
2022/03/07 08:44:57;;;;;;;19.45;9.75;;;3.50;99.90;;;;;;5050108;28;20037;-81
2022/03/07 08:47:23;;;;;;;15.15;9.45;;;3.60;99.90;;;;;;5049197;28;20502;-80
2022/03/07 08:49:49;;;;;;;17.23;9.27;;;3.80;99.90;;;;;;5049150;28;20060;-80
2022/03/07 08:52:17;;;;;;;18.45;9.02;;;3.90;99.90;;;;;;5064598;28;20060;-80
2022/03/07 08:54:44;;;;;;;14.15;9.90;;;4.00;99.90;;;;;;5069131;28;20386;-80
2022/03/07 08:57:11;;;;;;;12.60;8.63;;;4.20;99.90;;;;;;5068695;28;20090;-80
2022/03/07 08:59:36;;;;;;;19.98;9.88;;;4.30;99.90;;;;;;5068561;28;20101;-80
2022/03/07 09:02:03;;;;;;;14.98;8.30;;;4.50;99.90;;;;;;5069133;28;20037;-80
2022/03/07 09:04:29;;;;;;;15.25;8.60;;;4.60;99.90;;;;;;5052530;28;20044;-81
2022/03/07 09:06:54;;;;;;;15.77;9.10;;;4.70;99.90;;;;;;5068888;28;20044;-80
2022/03/07 09:09:20;;;;;;;15.52;8.80;;;4.80;99.90;;;;;;5054200;28;20414;-80
2022/03/07 09:11:47;;;;;;;15.63;8.25;;;5.00;99.90;;;;;;5072784;28;20440;-81
2022/03/07 09:14:13;;;;;;;13.68;8.40;;;5.10;99.90;;;;;;5072909;28;20072;-81
2022/03/07 09:16:39;;;;;;;12.85;7.60;;;5.30;99.90;;;;;;5055879;28;20091;-81
2022/03/07 09:19:05;;;;;;;13.20;7.80;;;5.40;99.90;;;;;;5072682;28;20059;-81
2022/03/07 09:21:30;;;;;;;15.40;8.50;;;5.60;99.90;;;;;;5073948;28;20044;-81
2022/03/07 09:23:56;;;;;;;13.88;8.35;;;5.80;99.90;;;;;;5070923;28;20083;-81
2022/03/07 09:26:21;;;;;;;14.25;6.35;;;6.00;99.90;;;;;;5055541;28;20048;-81
2022/03/07 09:28:47;;;;;;;13.95;7.93;;;6.20;99.90;;;;;;5056278;28;20409;-81
2022/03/07 09:31:13;;;;;;;11.07;6.90;;;6.30;99.90;;;;;;5072827;28;20472;-81
2022/03/07 09:33:39;;;;;;;15.20;8.35;;;6.40;99.90;;;;;;5056154;28;20511;-81
2022/03/07 09:36:05;;;;;;;18.20;9.55;;;6.60;99.90;;;;;;5072720;28;20039;-81
2022/03/07 09:38:31;;;;;;;13.43;7.65;;;6.80;99.90;;;;;;5072858;28;20090;-81
2022/03/07 09:40:57;;;;;;;11.68;6.25;;;6.90;99.90;;;;;;5072331;28;20127;-81
2022/03/07 09:43:23;;;;;;;12.30;6.50;;;7.10;99.90;;;;;;5072731;28;20036;-81
2022/03/07 09:45:49;;;;;;;17.40;8.85;;;7.20;99.90;;;;;;5072456;28;20468;-81
2022/03/07 09:48:16;;;;;;;13.95;7.85;;;7.30;99.90;;;;;;5072619;28;20555;-81
2022/03/07 09:50:42;;;;;;;12.65;6.93;;;7.40;99.90;;;;;;5072611;28;20489;-81
2022/03/07 09:53:08;;;;;;;12.32;6.05;;;7.50;99.90;;;;;;5072237;28;20527;-81
2022/03/07 09:55:36;;;;;;;11.70;5.30;;;7.40;99.90;;;;;;5072378;28;20391;-80
2022/03/07 09:58:02;;;;;;;10.10;4.28;;;7.60;99.90;;;;;;5055670;28;20486;-80
2022/03/07 10:00:27;;;;;;;12.18;5.43;;;7.60;99.90;;;;;;5056924;28;20041;-80
2022/03/07 10:02:59;;;;;;;12.13;5.63;;;7.70;99.90;;;;;;5052093;28;20059;-80
2022/03/07 10:05:27;;;;;;;12.20;6.07;;;7.90;99.90;;;;;;5052451;28;20481;-81
2022/03/07 10:07:52;;;;;;;10.05;5.25;;;8.10;99.90;;;;;;5049819;28;20380;-80
2022/03/07 10:10:18;;;;;;;11.73;6.00;;;8.20;99.90;;;;;;5051069;28;20555;-81
2022/03/07 10:12:51;;;;;;;13.13;6.22;;;8.30;99.90;;;;;;5034930;28;20558;-80
2022/03/07 10:15:19;;;;;;;10.68;5.50;;;8.50;99.90;;;;;;5051634;28;20437;-81
2022/03/07 10:17:53;;;;;;;10.88;6.20;;;8.70;99.90;;;;;;5051930;28;20406;-81
2022/03/07 10:20:21;;;;;;;10.45;5.53;;;8.90;99.90;;;;;;5049543;28;20052;-81
2022/03/07 10:22:50;;;;;;;11.30;6.00;;;9.10;99.70;;;;;;5051457;28;20045;-81
2022/03/07 10:25:16;;;;;;;13.60;7.50;;;9.40;99.40;;;;;;5051771;28;20086;-81
2022/03/07 10:27:45;;;;;;;13.82;6.07;;;9.60;99.20;;;;;;5034503;28;20048;-81
2022/03/07 10:30:20;;;;;;;11.40;5.72;;;9.80;98.70;;;;;;5051956;28;20060;-81
2022/03/07 10:32:52;;;;;;;11.02;5.22;;;10.00;97.70;;;;;;5034529;28;20044;-81
2022/03/07 10:35:26;;;;;;;11.25;5.25;;;10.10;96.50;;;;;;5034767;28;20127;-81
2022/03/07 10:37:59;;;;;;;9.68;3.83;;;10.20;95.80;;;;;;5034736;28;20073;-81
2022/03/07 10:40:25;;;;;;;10.90;3.60;;;10.40;94.40;;;;;;5051065;28;20041;-81
2022/03/07 10:42:54;;;;;;;11.60;4.20;;;10.40;93.10;;;;;;5051621;28;20069;-81
2022/03/07 10:45:21;;;;;;;11.02;4.43;;;10.40;92.80;;;;;;5034468;28;20041;-81
2022/03/07 10:47:55;;;;;;;9.50;4.18;;;10.40;92.20;;;;;;5050796;28;20059;-81
2022/03/07 10:50:23;;;;;;;9.25;3.45;;;10.40;91.70;;;;;;5050010;28;20128;-81
2022/03/07 10:52:51;;;;;;;9.63;3.88;;;10.50;92.10;;;;;;5050822;28;20033;-81
2022/03/07 10:55:24;;;;;;;8.30;3.33;;;10.50;92.20;;;;;;5034028;28;20139;-81
2022/03/07 10:57:49;;;;;;;8.50;3.15;;;10.60;91.50;;;;;;5051146;28;20048;-80
2022/03/07 11:00:17;;;;;;;10.60;3.83;;;10.60;91.30;;;;;;5051221;28;20041;-81
2022/03/07 11:02:44;;;;;;;9.60;3.05;;;10.70;90.90;;;;;;5033651;28;20118;-81
2022/03/07 11:05:12;;;;;;;9.05;3.50;;;10.60;90.90;;;;;;5034297;28;20055;-81
2022/03/07 11:07:40;;;;;;;11.82;3.65;;;10.60;90.80;;;;;;5050625;28;20048;-81
2022/03/07 11:10:08;;;;;;;9.55;4.15;;;10.60;90.80;;;;;;5049773;28;20437;-80
2022/03/07 11:12:35;;;;;;;11.30;4.32;;;10.60;90.70;;;;;;5050227;28;20491;-81
2022/03/07 11:15:08;;;;;;;10.40;4.22;;;10.60;91.20;;;;;;5053781;28;20405;-81
2022/03/07 11:17:38;;;;;;;9.43;4.13;;;10.80;91.60;;;;;;5070773;28;20072;-81
2022/03/07 11:20:04;;;;;;;9.05;3.95;;;10.90;91.20;;;;;;5070533;28;20253;-80
2022/03/07 11:22:31;;;;;;;8.25;4.22;;;11.20;91.10;;;;;;5070746;28;20072;-81
2022/03/07 11:24:57;;;;;;;9.32;3.35;;;11.40;90.10;;;;;;5070368;28;20108;-81
2022/03/07 11:27:23;;;;;;;9.45;3.95;;;11.60;86.10;;;;;;5071901;28;20079;-81
2022/03/07 11:29:48;;;;;;;10.43;4.25;;;11.70;81.30;;;;;;5070444;28;20072;-81
2022/03/07 11:32:14;;;;;;;9.00;3.50;;;11.80;78.20;;;;;;5064944;28;20118;-81
2022/03/07 11:35:02;;;;;;;8.68;3.35;;;11.70;75.30;;;;;;5050619;28;20029;-81
2022/03/07 11:37:32;;;;;;;8.50;3.45;;;11.70;73.70;;;;;;5034269;28;20043;-81
2022/03/07 11:39:59;;;;;;;8.18;3.40;;;11.70;73.80;;;;;;5033745;28;20044;-81
2022/03/07 11:42:36;;;;;;;8.23;3.40;;;11.70;73.20;;;;;;5049988;28;20040;-81
2022/03/07 11:45:10;;;;;;;8.38;3.85;;;11.90;73.10;;;;;;5049887;28;20040;-82
2022/03/07 11:47:40;;;;;;;8.93;3.78;;;12.00;71.30;;;;;;5033429;28;20128;-81
2022/03/07 11:50:07;;;;;;;9.52;3.97;;;12.20;70.30;;;;;;5046330;28;20514;-82
2022/03/07 11:52:33;;;;;;;9.40;3.55;;;12.30;69.80;;;;;;5049067;28;20043;-82
2022/03/07 11:55:02;;;;;;;8.07;3.08;;;12.40;70.20;;;;;;5048451;28;20375;-81
2022/03/07 11:57:34;;;;;;;7.75;2.92;;;12.60;68.70;;;;;;5033259;28;20037;-82
2022/03/07 12:00:10;;;;;;;7.43;2.95;;;12.70;65.20;;;;;;5049815;28;20096;-81
2022/03/07 12:02:44;;;;;;;7.40;3.10;;;12.80;64.80;;;;;;5032800;28;20048;-81
2022/03/07 12:05:39;;;;;;;8.07;2.97;;;13.00;64.10;;;;;;5050202;28;20437;-81
2022/03/07 12:08:14;;;;;;;8.32;3.22;;;13.10;64.40;;;;;;4983932;28;20524;-82
2022/03/07 12:10:59;;;;;;;10.38;3.63;;;13.20;65.00;;;;;;4967714;28;20415;-82
2022/03/07 12:13:26;;;;;;;7.65;3.03;;;13.30;65.00;;;;;;4997580;28;20050;-82
2022/03/07 12:15:57;;;;;;;7.53;3.03;;;13.30;64.10;;;;;;4968708;28;20105;-81
2022/03/07 12:18:24;;;;;;;5.82;2.50;;;13.40;63.10;;;;;;4988139;28;20525;-82
2022/03/07 12:20:52;;;;;;;7.47;3.15;;;13.50;61.00;;;;;;4991459;28;20180;-82
2022/03/07 12:23:20;;;;;;;8.07;3.65;;;13.60;60.30;;;;;;4991528;28;20592;-82
2022/03/07 12:25:46;;;;;;;8.45;3.20;;;13.60;60.30;;;;;;4988329;28;20512;-82
2022/03/07 12:28:13;;;;;;;8.60;3.53;;;13.80;59.30;;;;;;4983236;28;20030;-82
2022/03/07 12:30:38;;;;;;;7.72;2.95;;;13.90;58.60;;;;;;4981010;28;20105;-82
2022/03/07 12:33:09;;;;;;;8.20;3.00;;;14.10;59.30;;;;;;4981534;28;20125;-82
2022/03/07 12:35:34;;;;;;;8.18;3.60;;;14.20;56.90;;;;;;5016103;28;20061;-82
2022/03/07 12:38:01;;;;;;;7.60;3.10;;;14.40;56.50;;;;;;4992129;28;20503;-82
2022/03/07 12:40:27;;;;;;;7.45;2.75;;;14.60;55.10;;;;;;4991742;28;20056;-82
2022/03/07 12:42:52;;;;;;;6.70;2.85;;;14.60;54.20;;;;;;4992288;28;20447;-82